sensor_id;sensor_type;location;lat;lon;timestamp;P1;durP1;ratioP1;P2;durP2;ratioP2
3997;SDS011;61314;53.444;9.902;2024-01-30T00:01:10;19.63;;;12.00;;
3997;SDS011;61314;53.444;9.902;2024-01-30T00:03:38;27.35;;;13.98;;
3997;SDS011;61314;53.444;9.902;2024-01-30T00:06:05;19.60;;;13.48;;
3997;SDS011;61314;53.444;9.902;2024-01-30T00:08:32;16.40;;;13.73;;
3997;SDS011;61314;53.444;9.902;2024-01-30T00:10:59;16.92;;;12.35;;
3997;SDS011;61314;53.444;9.902;2024-01-30T00:13:27;22.77;;;13.43;;
3997;SDS011;61314;53.444;9.902;2024-01-30T00:15:54;21.70;;;12.65;;
3997;SDS011;61314;53.444;9.902;2024-01-30T00:18:21;19.48;;;13.45;;
3997;SDS011;61314;53.444;9.902;2024-01-30T00:20:48;21.38;;;14.63;;
3997;SDS011;61314;53.444;9.902;2024-01-30T00:23:15;18.67;;;13.48;;
3997;SDS011;61314;53.444;9.902;2024-01-30T00:25:42;20.13;;;13.82;;
3997;SDS011;61314;53.444;9.902;2024-01-30T00:28:10;17.85;;;13.05;;
3997;SDS011;61314;53.444;9.902;2024-01-30T00:30:37;15.48;;;11.73;;
3997;SDS011;61314;53.444;9.902;2024-01-30T00:33:07;16.08;;;11.48;;
3997;SDS011;61314;53.444;9.902;2024-01-30T00:35:35;15.63;;;12.32;;
3997;SDS011;61314;53.444;9.902;2024-01-30T00:38:02;18.67;;;12.60;;
3997;SDS011;61314;53.444;9.902;2024-01-30T00:40:29;17.38;;;12.40;;
3997;SDS011;61314;53.444;9.902;2024-01-30T00:42:56;21.23;;;12.63;;
3997;SDS011;61314;53.444;9.902;2024-01-30T00:45:23;18.27;;;12.27;;
3997;SDS011;61314;53.444;9.902;2024-01-30T00:47:50;15.60;;;11.43;;
3997;SDS011;61314;53.444;9.902;2024-01-30T00:50:17;18.15;;;12.88;;
3997;SDS011;61314;53.444;9.902;2024-01-30T00:52:44;14.75;;;11.20;;
3997;SDS011;61314;53.444;9.902;2024-01-30T00:55:12;14.25;;;11.68;;
3997;SDS011;61314;53.444;9.902;2024-01-30T00:57:40;21.27;;;10.95;;
3997;SDS011;61314;53.444;9.902;2024-01-30T01:00:10;15.27;;;11.07;;
3997;SDS011;61314;53.444;9.902;2024-01-30T01:02:38;17.30;;;11.70;;
3997;SDS011;61314;53.444;9.902;2024-01-30T01:05:06;14.38;;;10.95;;
3997;SDS011;61314;53.444;9.902;2024-01-30T01:07:33;20.33;;;12.90;;
3997;SDS011;61314;53.444;9.902;2024-01-30T01:10:00;17.40;;;10.90;;
3997;SDS011;61314;53.444;9.902;2024-01-30T01:12:28;13.80;;;10.68;;
3997;SDS011;61314;53.444;9.902;2024-01-30T01:14:56;12.38;;;10.23;;
3997;SDS011;61314;53.444;9.902;2024-01-30T01:17:24;20.30;;;10.55;;
3997;SDS011;61314;53.444;9.902;2024-01-30T01:19:51;10.68;;;9.13;;
3997;SDS011;61314;53.444;9.902;2024-01-30T01:22:18;15.13;;;10.38;;
3997;SDS011;61314;53.444;9.902;2024-01-30T01:24:46;12.35;;;9.25;;
3997;SDS011;61314;53.444;9.902;2024-01-30T01:27:13;15.27;;;9.48;;
3997;SDS011;61314;53.444;9.902;2024-01-30T01:29:40;10.77;;;9.68;;
3997;SDS011;61314;53.444;9.902;2024-01-30T01:32:07;13.50;;;9.23;;
3997;SDS011;61314;53.444;9.902;2024-01-30T01:34:34;11.35;;;8.93;;
3997;SDS011;61314;53.444;9.902;2024-01-30T01:37:01;13.25;;;10.02;;
3997;SDS011;61314;53.444;9.902;2024-01-30T01:39:28;10.50;;;9.00;;
3997;SDS011;61314;53.444;9.902;2024-01-30T01:41:55;13.18;;;9.35;;
3997;SDS011;61314;53.444;9.902;2024-01-30T01:44:23;13.55;;;9.15;;
3997;SDS011;61314;53.444;9.902;2024-01-30T01:46:50;11.98;;;9.27;;
3997;SDS011;61314;53.444;9.902;2024-01-30T01:49:18;15.57;;;8.73;;
3997;SDS011;61314;53.444;9.902;2024-01-30T01:51:45;10.80;;;8.65;;
3997;SDS011;61314;53.444;9.902;2024-01-30T01:54:14;12.35;;;8.95;;
3997;SDS011;61314;53.444;9.902;2024-01-30T01:56:42;14.13;;;10.10;;
3997;SDS011;61314;53.444;9.902;2024-01-30T01:59:10;11.82;;;8.85;;
3997;SDS011;61314;53.444;9.902;2024-01-30T02:01:37;15.00;;;9.60;;
3997;SDS011;61314;53.444;9.902;2024-01-30T02:04:04;10.82;;;9.65;;
3997;SDS011;61314;53.444;9.902;2024-01-30T02:06:32;10.80;;;8.55;;
3997;SDS011;61314;53.444;9.902;2024-01-30T02:08:59;12.07;;;9.20;;
3997;SDS011;61314;53.444;9.902;2024-01-30T02:11:26;12.38;;;9.02;;
3997;SDS011;61314;53.444;9.902;2024-01-30T02:13:54;12.73;;;8.68;;
3997;SDS011;61314;53.444;9.902;2024-01-30T02:16:21;11.45;;;9.70;;
3997;SDS011;61314;53.444;9.902;2024-01-30T02:18:48;13.90;;;10.27;;
3997;SDS011;61314;53.444;9.902;2024-01-30T02:21:16;14.13;;;10.15;;
3997;SDS011;61314;53.444;9.902;2024-01-30T02:23:43;13.98;;;9.25;;
3997;SDS011;61314;53.444;9.902;2024-01-30T02:26:11;11.15;;;8.80;;
3997;SDS011;61314;53.444;9.902;2024-01-30T02:28:38;16.63;;;10.27;;
3997;SDS011;61314;53.444;9.902;2024-01-30T02:31:05;12.18;;;8.88;;
3997;SDS011;61314;53.444;9.902;2024-01-30T02:33:32;12.35;;;9.25;;
3997;SDS011;61314;53.444;9.902;2024-01-30T02:35:59;15.48;;;10.77;;
3997;SDS011;61314;53.444;9.902;2024-01-30T02:38:27;11.15;;;8.85;;
3997;SDS011;61314;53.444;9.902;2024-01-30T02:40:54;13.60;;;8.88;;
3997;SDS011;61314;53.444;9.902;2024-01-30T02:43:22;14.35;;;9.55;;
3997;SDS011;61314;53.444;9.902;2024-01-30T02:45:50;11.80;;;9.85;;
3997;SDS011;61314;53.444;9.902;2024-01-30T02:48:17;16.92;;;10.52;;
3997;SDS011;61314;53.444;9.902;2024-01-30T02:50:44;13.85;;;10.65;;
3997;SDS011;61314;53.444;9.902;2024-01-30T02:53:12;13.85;;;9.18;;
3997;SDS011;61314;53.444;9.902;2024-01-30T02:55:39;13.05;;;10.77;;
3997;SDS011;61314;53.444;9.902;2024-01-30T02:58:06;13.32;;;9.77;;
3997;SDS011;61314;53.444;9.902;2024-01-30T03:00:33;20.40;;;10.75;;
3997;SDS011;61314;53.444;9.902;2024-01-30T03:03:00;15.73;;;10.68;;
3997;SDS011;61314;53.444;9.902;2024-01-30T03:05:28;14.38;;;10.45;;
3997;SDS011;61314;53.444;9.902;2024-01-30T03:07:54;14.45;;;10.50;;
3997;SDS011;61314;53.444;9.902;2024-01-30T03:10:21;13.55;;;10.50;;
3997;SDS011;61314;53.444;9.902;2024-01-30T03:12:48;12.90;;;9.88;;
3997;SDS011;61314;53.444;9.902;2024-01-30T03:15:15;17.00;;;10.23;;
3997;SDS011;61314;53.444;9.902;2024-01-30T03:17:42;11.45;;;9.85;;
3997;SDS011;61314;53.444;9.902;2024-01-30T03:20:09;16.38;;;10.43;;
3997;SDS011;61314;53.444;9.902;2024-01-30T03:22:36;14.65;;;9.82;;
3997;SDS011;61314;53.444;9.902;2024-01-30T03:25:03;14.32;;;10.77;;
3997;SDS011;61314;53.444;9.902;2024-01-30T03:27:30;13.45;;;9.85;;
3997;SDS011;61314;53.444;9.902;2024-01-30T03:29:56;12.50;;;9.35;;
3997;SDS011;61314;53.444;9.902;2024-01-30T03:32:24;12.70;;;10.60;;
3997;SDS011;61314;53.444;9.902;2024-01-30T03:34:50;12.02;;;9.82;;
3997;SDS011;61314;53.444;9.902;2024-01-30T03:37:17;16.83;;;10.73;;
3997;SDS011;61314;53.444;9.902;2024-01-30T03:39:44;13.43;;;9.02;;
3997;SDS011;61314;53.444;9.902;2024-01-30T03:42:11;15.98;;;10.68;;
3997;SDS011;61314;53.444;9.902;2024-01-30T03:44:38;13.68;;;10.38;;
3997;SDS011;61314;53.444;9.902;2024-01-30T03:47:05;12.93;;;10.07;;
3997;SDS011;61314;53.444;9.902;2024-01-30T03:49:33;13.13;;;10.48;;
3997;SDS011;61314;53.444;9.902;2024-01-30T03:52:00;13.48;;;10.40;;
3997;SDS011;61314;53.444;9.902;2024-01-30T03:54:27;13.95;;;10.45;;
3997;SDS011;61314;53.444;9.902;2024-01-30T03:56:54;14.10;;;10.30;;
3997;SDS011;61314;53.444;9.902;2024-01-30T03:59:20;18.20;;;10.57;;
3997;SDS011;61314;53.444;9.902;2024-01-30T04:01:50;13.82;;;9.95;;
3997;SDS011;61314;53.444;9.902;2024-01-30T04:04:18;14.50;;;11.00;;
3997;SDS011;61314;53.444;9.902;2024-01-30T04:06:45;14.95;;;10.20;;
3997;SDS011;61314;53.444;9.902;2024-01-30T04:09:13;17.33;;;10.25;;
3997;SDS011;61314;53.444;9.902;2024-01-30T04:11:40;17.55;;;11.20;;
3997;SDS011;61314;53.444;9.902;2024-01-30T04:14:08;14.20;;;10.18;;
3997;SDS011;61314;53.444;9.902;2024-01-30T04:16:35;15.10;;;10.13;;
3997;SDS011;61314;53.444;9.902;2024-01-30T04:19:02;12.70;;;10.98;;
3997;SDS011;61314;53.444;9.902;2024-01-30T04:21:29;17.02;;;10.88;;
3997;SDS011;61314;53.444;9.902;2024-01-30T04:23:55;11.73;;;9.75;;
3997;SDS011;61314;53.444;9.902;2024-01-30T04:26:24;20.58;;;11.18;;
3997;SDS011;61314;53.444;9.902;2024-01-30T04:28:50;16.30;;;10.70;;
3997;SDS011;61314;53.444;9.902;2024-01-30T04:31:17;15.07;;;10.38;;
3997;SDS011;61314;53.444;9.902;2024-01-30T04:33:44;17.25;;;10.63;;
3997;SDS011;61314;53.444;9.902;2024-01-30T04:36:11;18.35;;;11.93;;
3997;SDS011;61314;53.444;9.902;2024-01-30T04:38:40;15.93;;;10.65;;
3997;SDS011;61314;53.444;9.902;2024-01-30T04:41:07;13.73;;;10.93;;
3997;SDS011;61314;53.444;9.902;2024-01-30T04:43:34;15.30;;;11.93;;
3997;SDS011;61314;53.444;9.902;2024-01-30T04:46:00;16.35;;;11.65;;
3997;SDS011;61314;53.444;9.902;2024-01-30T04:48:27;15.88;;;11.88;;
3997;SDS011;61314;53.444;9.902;2024-01-30T04:50:54;14.05;;;11.50;;
3997;SDS011;61314;53.444;9.902;2024-01-30T04:53:22;16.52;;;11.80;;
3997;SDS011;61314;53.444;9.902;2024-01-30T04:55:49;17.92;;;10.90;;
3997;SDS011;61314;53.444;9.902;2024-01-30T04:58:15;19.80;;;12.65;;
3997;SDS011;61314;53.444;9.902;2024-01-30T05:00:42;16.42;;;11.57;;
3997;SDS011;61314;53.444;9.902;2024-01-30T05:03:09;16.23;;;12.95;;
3997;SDS011;61314;53.444;9.902;2024-01-30T05:05:36;13.80;;;11.73;;
3997;SDS011;61314;53.444;9.902;2024-01-30T05:08:02;13.18;;;11.20;;
3997;SDS011;61314;53.444;9.902;2024-01-30T05:10:29;16.13;;;11.70;;
3997;SDS011;61314;53.444;9.902;2024-01-30T05:12:56;20.02;;;11.90;;
3997;SDS011;61314;53.444;9.902;2024-01-30T05:15:23;15.00;;;11.52;;
3997;SDS011;61314;53.444;9.902;2024-01-30T05:17:49;17.88;;;12.13;;
3997;SDS011;61314;53.444;9.902;2024-01-30T05:20:16;18.27;;;12.30;;
3997;SDS011;61314;53.444;9.902;2024-01-30T05:22:44;17.58;;;11.98;;
3997;SDS011;61314;53.444;9.902;2024-01-30T05:25:12;17.15;;;13.88;;
3997;SDS011;61314;53.444;9.902;2024-01-30T05:27:40;14.75;;;11.70;;
3997;SDS011;61314;53.444;9.902;2024-01-30T05:30:07;15.27;;;10.98;;
3997;SDS011;61314;53.444;9.902;2024-01-30T05:32:34;19.48;;;12.23;;
3997;SDS011;61314;53.444;9.902;2024-01-30T05:35:02;17.73;;;12.23;;
3997;SDS011;61314;53.444;9.902;2024-01-30T05:37:29;13.68;;;11.30;;
3997;SDS011;61314;53.444;9.902;2024-01-30T05:39:56;15.45;;;11.73;;
3997;SDS011;61314;53.444;9.902;2024-01-30T05:42:24;17.45;;;13.40;;
3997;SDS011;61314;53.444;9.902;2024-01-30T05:44:52;22.67;;;12.95;;
3997;SDS011;61314;53.444;9.902;2024-01-30T05:47:19;18.17;;;12.50;;
3997;SDS011;61314;53.444;9.902;2024-01-30T05:49:46;15.60;;;12.27;;
3997;SDS011;61314;53.444;9.902;2024-01-30T05:52:13;16.13;;;11.52;;
3997;SDS011;61314;53.444;9.902;2024-01-30T05:54:41;22.60;;;12.60;;
3997;SDS011;61314;53.444;9.902;2024-01-30T05:57:08;20.92;;;13.82;;
3997;SDS011;61314;53.444;9.902;2024-01-30T05:59:35;25.13;;;12.35;;
3997;SDS011;61314;53.444;9.902;2024-01-30T06:02:07;17.98;;;13.35;;
3997;SDS011;61314;53.444;9.902;2024-01-30T06:04:34;15.82;;;11.93;;
3997;SDS011;61314;53.444;9.902;2024-01-30T06:07:01;17.33;;;13.40;;
3997;SDS011;61314;53.444;9.902;2024-01-30T06:09:29;22.13;;;14.00;;
3997;SDS011;61314;53.444;9.902;2024-01-30T06:11:56;19.75;;;12.60;;
3997;SDS011;61314;53.444;9.902;2024-01-30T06:14:23;17.58;;;12.60;;
3997;SDS011;61314;53.444;9.902;2024-01-30T06:16:50;19.75;;;12.95;;
3997;SDS011;61314;53.444;9.902;2024-01-30T06:19:17;20.67;;;13.68;;
3997;SDS011;61314;53.444;9.902;2024-01-30T06:21:45;16.20;;;13.30;;
3997;SDS011;61314;53.444;9.902;2024-01-30T06:24:12;22.58;;;14.48;;
3997;SDS011;61314;53.444;9.902;2024-01-30T06:26:39;20.65;;;13.80;;
3997;SDS011;61314;53.444;9.902;2024-01-30T06:29:06;23.45;;;13.95;;
3997;SDS011;61314;53.444;9.902;2024-01-30T06:31:39;19.63;;;13.25;;
3997;SDS011;61314;53.444;9.902;2024-01-30T06:34:07;22.27;;;12.55;;
3997;SDS011;61314;53.444;9.902;2024-01-30T06:36:34;22.27;;;14.75;;
3997;SDS011;61314;53.444;9.902;2024-01-30T06:39:02;20.75;;;14.43;;
3997;SDS011;61314;53.444;9.902;2024-01-30T06:41:29;21.95;;;14.30;;
3997;SDS011;61314;53.444;9.902;2024-01-30T06:43:57;20.25;;;15.45;;
3997;SDS011;61314;53.444;9.902;2024-01-30T06:46:24;22.17;;;15.40;;
3997;SDS011;61314;53.444;9.902;2024-01-30T06:48:51;19.60;;;14.80;;
3997;SDS011;61314;53.444;9.902;2024-01-30T06:51:18;23.65;;;13.93;;
3997;SDS011;61314;53.444;9.902;2024-01-30T06:53:45;21.17;;;14.43;;
3997;SDS011;61314;53.444;9.902;2024-01-30T06:56:12;26.27;;;15.43;;
3997;SDS011;61314;53.444;9.902;2024-01-30T06:58:40;23.45;;;14.80;;
3997;SDS011;61314;53.444;9.902;2024-01-30T07:01:07;21.15;;;14.75;;
3997;SDS011;61314;53.444;9.902;2024-01-30T07:03:34;26.30;;;16.75;;
3997;SDS011;61314;53.444;9.902;2024-01-30T07:06:01;24.75;;;18.13;;
3997;SDS011;61314;53.444;9.902;2024-01-30T07:08:28;24.65;;;16.33;;
3997;SDS011;61314;53.444;9.902;2024-01-30T07:10:55;22.27;;;16.60;;
3997;SDS011;61314;53.444;9.902;2024-01-30T07:13:27;25.77;;;15.25;;
3997;SDS011;61314;53.444;9.902;2024-01-30T07:15:54;24.50;;;17.38;;
3997;SDS011;61314;53.444;9.902;2024-01-30T07:18:22;24.55;;;16.30;;
3997;SDS011;61314;53.444;9.902;2024-01-30T07:20:49;22.95;;;16.45;;
3997;SDS011;61314;53.444;9.902;2024-01-30T07:23:16;32.67;;;18.13;;
3997;SDS011;61314;53.444;9.902;2024-01-30T07:25:44;53.67;;;26.30;;
3997;SDS011;61314;53.444;9.902;2024-01-30T07:28:15;56.92;;;26.45;;
3997;SDS011;61314;53.444;9.902;2024-01-30T07:30:43;57.83;;;26.50;;
3997;SDS011;61314;53.444;9.902;2024-01-30T07:33:10;63.35;;;28.55;;
3997;SDS011;61314;53.444;9.902;2024-01-30T07:35:37;62.72;;;26.88;;
3997;SDS011;61314;53.444;9.902;2024-01-30T07:38:04;54.28;;;27.02;;
3997;SDS011;61314;53.444;9.902;2024-01-30T07:40:31;60.90;;;27.45;;
3997;SDS011;61314;53.444;9.902;2024-01-30T07:42:59;55.45;;;24.92;;
3997;SDS011;61314;53.444;9.902;2024-01-30T07:45:27;90.80;;;38.70;;
3997;SDS011;61314;53.444;9.902;2024-01-30T07:47:58;93.82;;;38.03;;
3997;SDS011;61314;53.444;9.902;2024-01-30T07:50:26;90.30;;;36.95;;
3997;SDS011;61314;53.444;9.902;2024-01-30T07:52:55;143.27;;;49.97;;
3997;SDS011;61314;53.444;9.902;2024-01-30T07:55:23;195.30;;;65.88;;
3997;SDS011;61314;53.444;9.902;2024-01-30T07:57:51;125.25;;;48.25;;
3997;SDS011;61314;53.444;9.902;2024-01-30T08:00:20;59.42;;;31.10;;
3997;SDS011;61314;53.444;9.902;2024-01-30T08:02:48;45.90;;;24.40;;
3997;SDS011;61314;53.444;9.902;2024-01-30T08:05:15;36.45;;;21.63;;
3997;SDS011;61314;53.444;9.902;2024-01-30T08:07:42;26.10;;;17.63;;
3997;SDS011;61314;53.444;9.902;2024-01-30T08:10:11;26.17;;;18.30;;
3997;SDS011;61314;53.444;9.902;2024-01-30T08:12:39;26.70;;;17.80;;
3997;SDS011;61314;53.444;9.902;2024-01-30T08:15:06;22.02;;;17.35;;
3997;SDS011;61314;53.444;9.902;2024-01-30T08:17:34;23.33;;;17.25;;
3997;SDS011;61314;53.444;9.902;2024-01-30T08:20:01;28.25;;;17.40;;
3997;SDS011;61314;53.444;9.902;2024-01-30T08:22:30;23.85;;;15.63;;
3997;SDS011;61314;53.444;9.902;2024-01-30T08:24:57;20.75;;;15.45;;
3997;SDS011;61314;53.444;9.902;2024-01-30T08:27:24;24.95;;;15.50;;
3997;SDS011;61314;53.444;9.902;2024-01-30T08:29:51;30.67;;;17.88;;
3997;SDS011;61314;53.444;9.902;2024-01-30T08:32:18;25.38;;;17.27;;
3997;SDS011;61314;53.444;9.902;2024-01-30T08:34:45;26.40;;;16.02;;
3997;SDS011;61314;53.444;9.902;2024-01-30T08:37:12;25.63;;;16.77;;
3997;SDS011;61314;53.444;9.902;2024-01-30T08:39:43;29.25;;;16.85;;
3997;SDS011;61314;53.444;9.902;2024-01-30T08:42:10;28.27;;;18.58;;
3997;SDS011;61314;53.444;9.902;2024-01-30T08:44:37;27.08;;;18.23;;
3997;SDS011;61314;53.444;9.902;2024-01-30T08:47:05;26.73;;;16.05;;
3997;SDS011;61314;53.444;9.902;2024-01-30T08:49:32;25.85;;;15.88;;
3997;SDS011;61314;53.444;9.902;2024-01-30T08:51:59;25.92;;;16.42;;
3997;SDS011;61314;53.444;9.902;2024-01-30T08:54:26;24.00;;;16.33;;
3997;SDS011;61314;53.444;9.902;2024-01-30T08:56:52;22.80;;;15.88;;
3997;SDS011;61314;53.444;9.902;2024-01-30T08:59:19;22.58;;;15.50;;
3997;SDS011;61314;53.444;9.902;2024-01-30T09:01:46;27.67;;;16.45;;
3997;SDS011;61314;53.444;9.902;2024-01-30T09:04:28;26.67;;;16.67;;
3997;SDS011;61314;53.444;9.902;2024-01-30T09:06:56;24.50;;;16.00;;
3997;SDS011;61314;53.444;9.902;2024-01-30T09:09:23;22.27;;;16.48;;
3997;SDS011;61314;53.444;9.902;2024-01-30T09:11:50;26.27;;;16.02;;
3997;SDS011;61314;53.444;9.902;2024-01-30T09:14:17;22.58;;;14.57;;
3997;SDS011;61314;53.444;9.902;2024-01-30T09:16:43;27.58;;;17.48;;
3997;SDS011;61314;53.444;9.902;2024-01-30T09:19:10;24.35;;;16.60;;
3997;SDS011;61314;53.444;9.902;2024-01-30T09:21:37;28.90;;;16.73;;
3997;SDS011;61314;53.444;9.902;2024-01-30T09:24:04;19.23;;;14.50;;
3997;SDS011;61314;53.444;9.902;2024-01-30T09:26:31;23.95;;;16.60;;
3997;SDS011;61314;53.444;9.902;2024-01-30T09:28:58;24.00;;;16.25;;
3997;SDS011;61314;53.444;9.902;2024-01-30T09:31:25;21.48;;;16.00;;
3997;SDS011;61314;53.444;9.902;2024-01-30T09:33:52;24.90;;;15.73;;
3997;SDS011;61314;53.444;9.902;2024-01-30T09:36:20;24.58;;;16.58;;
3997;SDS011;61314;53.444;9.902;2024-01-30T09:38:48;26.90;;;16.20;;
3997;SDS011;61314;53.444;9.902;2024-01-30T09:41:14;25.30;;;15.85;;
3997;SDS011;61314;53.444;9.902;2024-01-30T09:43:42;23.25;;;15.52;;
3997;SDS011;61314;53.444;9.902;2024-01-30T09:46:14;22.15;;;14.18;;
3997;SDS011;61314;53.444;9.902;2024-01-30T09:48:42;24.95;;;15.30;;
3997;SDS011;61314;53.444;9.902;2024-01-30T09:51:09;27.08;;;15.60;;
3997;SDS011;61314;53.444;9.902;2024-01-30T09:53:36;21.15;;;13.80;;
3997;SDS011;61314;53.444;9.902;2024-01-30T09:56:04;22.27;;;13.90;;
3997;SDS011;61314;53.444;9.902;2024-01-30T09:58:31;21.88;;;13.90;;
3997;SDS011;61314;53.444;9.902;2024-01-30T10:00:58;22.58;;;12.23;;
3997;SDS011;61314;53.444;9.902;2024-01-30T10:03:25;19.08;;;13.43;;
3997;SDS011;61314;53.444;9.902;2024-01-30T10:05:53;23.20;;;13.50;;
3997;SDS011;61314;53.444;9.902;2024-01-30T10:08:21;27.02;;;14.45;;
3997;SDS011;61314;53.444;9.902;2024-01-30T10:10:49;20.13;;;12.75;;
3997;SDS011;61314;53.444;9.902;2024-01-30T10:13:16;17.42;;;12.00;;
3997;SDS011;61314;53.444;9.902;2024-01-30T10:15:44;19.90;;;12.77;;
3997;SDS011;61314;53.444;9.902;2024-01-30T10:18:11;14.38;;;11.85;;
3997;SDS011;61314;53.444;9.902;2024-01-30T10:20:38;20.05;;;13.38;;
3997;SDS011;61314;53.444;9.902;2024-01-30T10:23:06;19.67;;;14.35;;
3997;SDS011;61314;53.444;9.902;2024-01-30T10:25:34;19.88;;;13.02;;
3997;SDS011;61314;53.444;9.902;2024-01-30T10:28:01;21.50;;;13.38;;
3997;SDS011;61314;53.444;9.902;2024-01-30T10:30:28;19.35;;;14.45;;
3997;SDS011;61314;53.444;9.902;2024-01-30T10:32:55;26.40;;;12.20;;
3997;SDS011;61314;53.444;9.902;2024-01-30T10:35:23;17.52;;;11.95;;
3997;SDS011;61314;53.444;9.902;2024-01-30T10:37:50;16.85;;;12.68;;
3997;SDS011;61314;53.444;9.902;2024-01-30T10:40:17;24.48;;;12.30;;
3997;SDS011;61314;53.444;9.902;2024-01-30T10:42:48;15.30;;;12.15;;
3997;SDS011;61314;53.444;9.902;2024-01-30T10:45:19;14.23;;;10.90;;
3997;SDS011;61314;53.444;9.902;2024-01-30T10:47:50;20.13;;;12.18;;
3997;SDS011;61314;53.444;9.902;2024-01-30T10:50:21;12.37;;;11.07;;
3997;SDS011;61314;53.444;9.902;2024-01-30T10:52:50;15.93;;;11.18;;
3997;SDS011;61314;53.444;9.902;2024-01-30T10:55:18;16.05;;;11.98;;
3997;SDS011;61314;53.444;9.902;2024-01-30T10:57:45;17.73;;;11.25;;
3997;SDS011;61314;53.444;9.902;2024-01-30T11:00:12;21.48;;;11.80;;
3997;SDS011;61314;53.444;9.902;2024-01-30T11:02:43;18.00;;;11.23;;
3997;SDS011;61314;53.444;9.902;2024-01-30T11:05:14;14.10;;;10.30;;
3997;SDS011;61314;53.444;9.902;2024-01-30T11:07:42;12.90;;;10.30;;
3997;SDS011;61314;53.444;9.902;2024-01-30T11:10:09;13.23;;;10.25;;
3997;SDS011;61314;53.444;9.902;2024-01-30T11:12:41;15.80;;;10.60;;
3997;SDS011;61314;53.444;9.902;2024-01-30T11:15:11;29.77;;;10.83;;
3997;SDS011;61314;53.444;9.902;2024-01-30T11:17:39;16.43;;;11.10;;
3997;SDS011;61314;53.444;9.902;2024-01-30T11:22:41;14.67;;;9.80;;
3997;SDS011;61314;53.444;9.902;2024-01-30T11:25:17;13.17;;;9.70;;
3997;SDS011;61314;53.444;9.902;2024-01-30T11:27:44;15.17;;;9.33;;
3997;SDS011;61314;53.444;9.902;2024-01-30T11:30:24;13.53;;;10.63;;
3997;SDS011;61314;53.444;9.902;2024-01-30T11:33:05;13.27;;;9.73;;
3997;SDS011;61314;53.444;9.902;2024-01-30T11:35:37;15.77;;;12.57;;
3997;SDS011;61314;53.444;9.902;2024-01-30T11:38:09;19.50;;;12.53;;
3997;SDS011;61314;53.444;9.902;2024-01-30T11:40:37;13.83;;;10.30;;
3997;SDS011;61314;53.444;9.902;2024-01-30T11:43:05;16.20;;;10.80;;
3997;SDS011;61314;53.444;9.902;2024-01-30T11:45:33;16.07;;;9.63;;
3997;SDS011;61314;53.444;9.902;2024-01-30T11:48:00;18.73;;;10.97;;
3997;SDS011;61314;53.444;9.902;2024-01-30T11:50:30;12.57;;;11.27;;
3997;SDS011;61314;53.444;9.902;2024-01-30T11:52:59;12.57;;;9.83;;
3997;SDS011;61314;53.444;9.902;2024-01-30T11:55:27;10.93;;;9.47;;
3997;SDS011;61314;53.444;9.902;2024-01-30T11:58:00;14.50;;;10.13;;
3997;SDS011;61314;53.444;9.902;2024-01-30T12:00:28;17.50;;;11.30;;
3997;SDS011;61314;53.444;9.902;2024-01-30T12:02:57;16.00;;;10.50;;
3997;SDS011;61314;53.444;9.902;2024-01-30T12:05:28;14.47;;;10.20;;
3997;SDS011;61314;53.444;9.902;2024-01-30T12:07:56;17.07;;;11.23;;
3997;SDS011;61314;53.444;9.902;2024-01-30T12:10:28;16.87;;;11.67;;
3997;SDS011;61314;53.444;9.902;2024-01-30T12:12:55;16.73;;;10.23;;
3997;SDS011;61314;53.444;9.902;2024-01-30T12:15:23;15.93;;;11.27;;
3997;SDS011;61314;53.444;9.902;2024-01-30T12:17:51;11.60;;;9.27;;
3997;SDS011;61314;53.444;9.902;2024-01-30T12:20:19;18.33;;;9.97;;
3997;SDS011;61314;53.444;9.902;2024-01-30T12:22:48;13.80;;;10.57;;
3997;SDS011;61314;53.444;9.902;2024-01-30T12:25:17;18.80;;;10.23;;
3997;SDS011;61314;53.444;9.902;2024-01-30T12:27:46;13.23;;;10.20;;
3997;SDS011;61314;53.444;9.902;2024-01-30T12:30:16;14.30;;;12.13;;
3997;SDS011;61314;53.444;9.902;2024-01-30T12:32:44;12.37;;;11.07;;
3997;SDS011;61314;53.444;9.902;2024-01-30T12:35:16;14.77;;;11.00;;
3997;SDS011;61314;53.444;9.902;2024-01-30T12:37:44;16.20;;;12.30;;
3997;SDS011;61314;53.444;9.902;2024-01-30T12:40:11;17.30;;;11.67;;
3997;SDS011;61314;53.444;9.902;2024-01-30T12:42:42;13.43;;;10.20;;
3997;SDS011;61314;53.444;9.902;2024-01-30T12:45:13;13.37;;;10.90;;
3997;SDS011;61314;53.444;9.902;2024-01-30T12:47:41;14.77;;;10.80;;
3997;SDS011;61314;53.444;9.902;2024-01-30T12:50:09;16.57;;;10.97;;
3997;SDS011;61314;53.444;9.902;2024-01-30T12:52:36;14.50;;;10.17;;
3997;SDS011;61314;53.444;9.902;2024-01-30T12:55:03;12.27;;;10.87;;
3997;SDS011;61314;53.444;9.902;2024-01-30T12:57:31;15.47;;;11.47;;
3997;SDS011;61314;53.444;9.902;2024-01-30T12:59:58;17.43;;;11.10;;
3997;SDS011;61314;53.444;9.902;2024-01-30T13:02:25;14.27;;;10.40;;
3997;SDS011;61314;53.444;9.902;2024-01-30T13:04:56;19.40;;;12.37;;
3997;SDS011;61314;53.444;9.902;2024-01-30T13:07:23;15.47;;;9.70;;
3997;SDS011;61314;53.444;9.902;2024-01-30T13:09:50;15.13;;;10.53;;
3997;SDS011;61314;53.444;9.902;2024-01-30T13:12:18;19.70;;;11.37;;
3997;SDS011;61314;53.444;9.902;2024-01-30T13:14:45;17.20;;;11.30;;
3997;SDS011;61314;53.444;9.902;2024-01-30T13:17:12;13.80;;;10.10;;
3997;SDS011;61314;53.444;9.902;2024-01-30T13:19:39;12.47;;;10.13;;
3997;SDS011;61314;53.444;9.902;2024-01-30T13:22:06;14.07;;;11.00;;
3997;SDS011;61314;53.444;9.902;2024-01-30T13:24:33;17.60;;;10.20;;
3997;SDS011;61314;53.444;9.902;2024-01-30T13:27:01;16.93;;;10.17;;
3997;SDS011;61314;53.444;9.902;2024-01-30T13:29:28;16.50;;;11.00;;
3997;SDS011;61314;53.444;9.902;2024-01-30T13:31:55;15.37;;;10.37;;
3997;SDS011;61314;53.444;9.902;2024-01-30T13:34:22;13.80;;;10.37;;
3997;SDS011;61314;53.444;9.902;2024-01-30T13:36:49;18.90;;;10.30;;
3997;SDS011;61314;53.444;9.902;2024-01-30T13:39:17;14.90;;;10.23;;
3997;SDS011;61314;53.444;9.902;2024-01-30T13:41:44;21.53;;;10.57;;
3997;SDS011;61314;53.444;9.902;2024-01-30T13:44:11;17.83;;;11.50;;
3997;SDS011;61314;53.444;9.902;2024-01-30T13:46:38;13.23;;;11.57;;
3997;SDS011;61314;53.444;9.902;2024-01-30T13:49:06;16.40;;;10.40;;
3997;SDS011;61314;53.444;9.902;2024-01-30T13:51:33;16.10;;;10.30;;
3997;SDS011;61314;53.444;9.902;2024-01-30T13:54:01;18.03;;;10.63;;
3997;SDS011;61314;53.444;9.902;2024-01-30T13:56:28;14.30;;;11.27;;
3997;SDS011;61314;53.444;9.902;2024-01-30T13:58:56;13.63;;;10.67;;
3997;SDS011;61314;53.444;9.902;2024-01-30T14:01:24;15.10;;;11.90;;
3997;SDS011;61314;53.444;9.902;2024-01-30T14:03:51;13.23;;;10.57;;
3997;SDS011;61314;53.444;9.902;2024-01-30T14:06:18;15.20;;;10.60;;
3997;SDS011;61314;53.444;9.902;2024-01-30T14:08:46;13.60;;;10.40;;
3997;SDS011;61314;53.444;9.902;2024-01-30T14:11:22;14.27;;;10.90;;
3997;SDS011;61314;53.444;9.902;2024-01-30T14:13:49;16.43;;;11.70;;
3997;SDS011;61314;53.444;9.902;2024-01-30T14:16:16;19.83;;;10.80;;
3997;SDS011;61314;53.444;9.902;2024-01-30T14:18:43;17.10;;;12.00;;
3997;SDS011;61314;53.444;9.902;2024-01-30T14:21:10;17.60;;;12.07;;
3997;SDS011;61314;53.444;9.902;2024-01-30T14:23:37;18.77;;;12.57;;
3997;SDS011;61314;53.444;9.902;2024-01-30T14:26:05;16.30;;;10.80;;
3997;SDS011;61314;53.444;9.902;2024-01-30T14:28:32;20.33;;;11.43;;
3997;SDS011;61314;53.444;9.902;2024-01-30T14:31:00;17.53;;;11.07;;
3997;SDS011;61314;53.444;9.902;2024-01-30T14:33:27;19.87;;;11.90;;
3997;SDS011;61314;53.444;9.902;2024-01-30T14:35:54;14.77;;;10.30;;
3997;SDS011;61314;53.444;9.902;2024-01-30T14:38:21;16.63;;;11.50;;
3997;SDS011;61314;53.444;9.902;2024-01-30T14:40:48;17.77;;;10.87;;